Airfield :
LOGIN :

Register | Disclaimer

   EN    FR    IT 

 










Legend :    VFR   Marginal VFR   IFR   Intensive IFR   Very Intensive IFR
Visi :
Ceiling :
>= 8 km
>= 3000ft
5 to 8 km
1000 to 3000 ft
1500m to 5 km
500 to 1000 ft
800 to 1500m
200 to 500 ft
< 800m
< 200 ft
Symbols :   Thunderstorms  Fog  Heavy snow  Heavy precipitations  Wind > 20 kt
SIGMETs :     Misc.  Thunderstorms  Icing  Turbulence  Mountain Waves  Volcanic Ashes






- Airport Elevation : 352 ft
- IATA code : ARW


LRAR - Arad International

CURRENT METAR :
  • 281530Z 17012KT 9999 FEW007 FEW045CB 08/07 Q1007 R09/29//95

EXPIRED METARs :
  • 281500Z 16013KT 8000 -SHRA FEW020 FEW040CB 08/08 Q1007 R09/29//95
  • 281430Z 16013KT 8000 FEW010 BKN048 07/07 Q1007 R09/29//95
  • 281400Z 17009KT 8000 BKN046 07/07 Q1008 R09/29//95
  • 281330Z 17010KT 7000 BKN046 07/07 Q1008 R09/29//95
  • 281300Z 16010KT 7000 BKN045 06/06 Q1008 R09/29//95
  • 281230Z 17009KT 5000 -RA BR SCT040 BKN047 06/06 Q1009 R09/19//95

TAF TAF LRAR
Valid from the 28 at 15:00 until the 29 at 00:00 UTC


281400Z 2815/2824 18012KT 8000 BKN045
BECMG 2818/2820 5000 -RA BR BKN015 BKN035
PROB40
TEMPO 2821/2824 31015G25KT 3000 SHRA BKN010 BKN030CB



MET'MAP, your aeronautical weather chart ! - Copyright ORBIFLY December 2007 - Disclaimer

ORBIFLY MET'MAP TEAM :

Programming & Development : Alexandra Zaïnal
Concept & original design : Baudouin d'Aumeries
Assistance for programming : Marc-Olivier Méhu
Technical & hardware support : Manuel Goepfert

Contact : metmap@orbifly.com




SOURCES & CREDITS :

   NOAA